Time;durP1;ratioP1;P1;durP2;ratioP2;P2;SDS_P1;SDS_P2;PMS_P1;PMS_P2;Temp;Humidity;BMP_temperature;BMP_pressure;BME280_temperature;BME280_humidity;BME280_pressure;Samples;Min_cycle;Max_cycle;Signal;HPM_P1;HPM_P2
2022/11/01 00:00:32;0.00;0.00;0.62;0.00;0.00;0.62;4.33;3.17;;;30.00;29.90;;;;;;2265672;61;20357;-67
2022/11/01 00:03:22;0.00;0.00;0.62;0.00;0.00;0.62;3.73;3.33;;;30.00;29.90;;;;;;2265477;61;20589;-66
2022/11/01 00:06:08;0.00;0.00;0.62;0.00;0.00;0.62;3.80;3.30;;;30.00;29.90;;;;;;2265607;61;20420;-66
2022/11/01 00:08:55;0.00;0.00;0.62;0.00;0.00;0.62;3.50;3.10;;;30.00;29.90;;;;;;2265404;61;20403;-65
2022/11/01 00:11:41;0.00;0.00;0.62;0.00;0.00;0.62;3.90;3.50;;;30.00;29.90;;;;;;2266391;61;20361;-64
2022/11/01 00:14:27;0.00;0.00;0.62;0.00;0.00;0.62;3.77;3.40;;;30.00;29.90;;;;;;2265850;61;20360;-67
2022/11/01 00:17:11;0.00;0.00;0.62;0.00;0.00;0.62;4.13;3.73;;;30.00;29.90;;;;;;2263972;61;20720;-65
2022/11/01 00:19:57;0.00;0.00;0.62;0.00;0.00;0.62;5.07;3.57;;;30.00;29.90;;;;;;2261233;61;20398;-65
2022/11/01 00:22:42;0.00;0.00;0.62;0.00;0.00;0.62;3.90;3.50;;;30.00;29.90;;;;;;2261823;61;20362;-66
2022/11/01 00:25:26;0.00;0.00;0.62;0.00;0.00;0.62;4.57;3.23;;;30.10;30.00;;;;;;2260814;61;20378;-62
2022/11/01 00:28:11;0.00;0.00;0.62;0.00;0.00;0.62;3.90;3.47;;;30.00;29.90;;;;;;2261632;61;20350;-63
2022/11/01 00:30:57;0.00;0.00;0.62;0.00;0.00;0.62;6.07;4.30;;;30.10;29.90;;;;;;2261246;61;20366;-63
2022/11/01 00:33:42;0.00;0.00;0.62;0.00;0.00;0.62;4.90;4.27;;;30.00;29.80;;;;;;2261957;61;20450;-64
2022/11/01 00:36:28;0.00;0.00;0.62;0.00;0.00;0.62;4.07;3.50;;;30.00;29.80;;;;;;2262021;61;20600;-64
2022/11/01 00:39:14;0.00;0.00;0.62;0.00;0.00;0.62;4.73;4.00;;;30.10;29.90;;;;;;2261538;61;20389;-64
2022/11/01 00:41:59;0.00;0.00;0.62;0.00;0.00;0.62;4.37;3.97;;;30.00;29.80;;;;;;2261610;61;20362;-64
2022/11/01 00:44:44;0.00;0.00;0.62;0.00;0.00;0.62;4.07;3.70;;;30.10;29.90;;;;;;2261894;61;20866;-64
2022/11/01 00:47:28;0.00;0.00;0.62;0.00;0.00;0.62;4.83;4.20;;;30.00;29.80;;;;;;2261355;61;20362;-64
2022/11/01 00:50:15;0.00;0.00;0.62;0.00;0.00;0.62;4.67;4.17;;;30.00;29.80;;;;;;2261778;61;20378;-64
2022/11/01 00:53:01;0.00;0.00;0.62;0.00;0.00;0.62;5.40;4.90;;;30.00;29.80;;;;;;2261683;61;20382;-64
2022/11/01 00:55:46;0.00;0.00;0.62;0.00;0.00;0.62;5.33;4.43;;;30.00;29.80;;;;;;2262030;61;20386;-64
2022/11/01 00:58:30;0.00;0.00;0.62;0.00;0.00;0.62;5.57;5.07;;;30.00;29.70;;;;;;2261820;61;20765;-64
2022/11/01 01:01:15;0.00;0.00;0.62;0.00;0.00;0.62;4.20;3.80;;;30.00;29.70;;;;;;2261303;61;20377;-64
2022/11/01 01:03:59;0.00;0.00;0.62;0.00;0.00;0.62;4.57;4.13;;;30.00;29.70;;;;;;2261812;61;20424;-63
2022/11/01 01:06:44;0.00;0.00;0.62;0.00;0.00;0.62;4.30;3.90;;;30.00;29.70;;;;;;2261619;61;20481;-64
2022/11/01 01:09:31;0.00;0.00;0.62;0.00;0.00;0.62;4.47;4.00;;;30.00;29.70;;;;;;2260839;61;20354;-64
2022/11/01 01:12:16;0.00;0.00;0.62;0.00;0.00;0.62;4.63;4.07;;;30.00;29.70;;;;;;2261616;61;20365;-63
2022/11/01 01:15:00;0.00;0.00;0.62;0.00;0.00;0.62;4.97;4.47;;;30.00;29.70;;;;;;2261839;61;20451;-63
2022/11/01 01:17:45;0.00;0.00;0.62;0.00;0.00;0.62;5.07;4.57;;;29.90;29.70;;;;;;2261960;61;20405;-64
2022/11/01 01:20:31;0.00;0.00;0.62;0.00;0.00;0.62;5.00;4.53;;;29.90;29.60;;;;;;2261611;61;20438;-64
2022/11/01 01:23:15;0.00;0.00;0.62;0.00;0.00;0.62;4.80;4.10;;;30.00;29.70;;;;;;2261121;61;20365;-64
2022/11/01 01:26:05;0.00;0.00;0.62;0.00;0.00;0.62;5.40;4.27;;;29.90;29.70;;;;;;2262062;61;20381;-64
2022/11/01 01:28:52;0.00;0.00;0.62;0.00;0.00;0.62;4.80;4.30;;;29.90;29.70;;;;;;2262023;61;20381;-64
2022/11/01 01:31:38;0.00;0.00;0.62;0.00;0.00;0.62;4.60;4.00;;;29.90;29.70;;;;;;2261227;61;20366;-64
2022/11/01 01:34:22;0.00;0.00;0.62;0.00;0.00;0.62;4.27;3.87;;;29.90;29.70;;;;;;2261465;61;20390;-64
2022/11/01 01:37:08;0.00;0.00;0.62;0.00;0.00;0.62;4.40;3.60;;;29.90;29.80;;;;;;2262033;61;20782;-64
2022/11/01 01:39:53;0.00;0.00;0.62;0.00;0.00;0.62;4.60;4.10;;;29.90;29.70;;;;;;2261731;61;20431;-64
2022/11/01 01:42:41;0.00;0.00;0.62;0.00;0.00;0.62;5.10;3.53;;;29.90;29.70;;;;;;2261694;61;20470;-64
2022/11/01 01:45:34;0.00;0.00;0.62;0.00;0.00;0.62;4.43;4.03;;;29.90;29.70;;;;;;2261093;61;20505;-64
2022/11/01 01:48:25;0.00;0.00;0.62;0.00;0.00;0.62;4.00;3.60;;;29.90;29.80;;;;;;2261525;61;20412;-64
2022/11/01 01:51:13;0.00;0.00;0.62;0.00;0.00;0.62;3.20;2.90;;;29.90;29.70;;;;;;2261893;61;20442;-63
2022/11/01 01:53:58;0.00;0.00;0.62;0.00;0.00;0.62;5.53;4.20;;;29.80;29.70;;;;;;2261035;61;20726;-63
2022/11/01 01:56:43;0.00;0.00;0.62;0.00;0.00;0.62;5.13;4.63;;;29.80;29.70;;;;;;2261586;61;20695;-65
2022/11/01 01:59:30;0.00;0.00;0.62;0.00;0.00;0.62;4.80;4.30;;;29.80;29.60;;;;;;2262023;61;20417;-68
2022/11/01 02:02:17;0.00;0.00;0.62;0.00;0.00;0.62;5.13;4.63;;;29.80;29.70;;;;;;2261707;61;20683;-68
2022/11/01 02:05:09;0.00;0.00;0.62;0.00;0.00;0.62;6.47;5.87;;;29.80;29.60;;;;;;2261312;61;20801;-67
2022/11/01 02:07:55;0.00;0.00;0.62;0.00;0.00;0.62;6.80;6.20;;;29.80;29.60;;;;;;2261157;61;20357;-68
2022/11/01 02:10:40;0.00;0.00;0.62;0.00;0.00;0.62;6.90;5.13;;;29.80;29.60;;;;;;2261119;61;20389;-68
2022/11/01 02:13:25;0.00;0.00;0.62;0.00;0.00;0.62;6.30;5.43;;;29.80;29.60;;;;;;2261804;61;20362;-68
2022/11/01 02:16:40;0.00;0.00;0.62;0.00;0.00;0.62;6.50;5.67;;;29.70;29.50;;;;;;2260901;61;20382;-68
2022/11/01 02:20:22;0.00;0.00;0.62;0.00;0.00;0.62;6.63;5.83;;;29.70;29.50;;;;;;2261529;61;20489;-68
2022/11/01 02:23:34;0.00;0.00;0.62;0.00;0.00;0.62;6.63;6.03;;;29.70;29.40;;;;;;2257284;61;20362;-68
2022/11/01 02:27:10;0.00;0.00;0.62;0.00;0.00;0.62;5.40;4.90;;;29.60;29.40;;;;;;2261514;61;20385;-68
2022/11/01 02:30:14;0.00;0.00;0.62;0.00;0.00;0.62;6.07;5.47;;;29.60;29.40;;;;;;2259934;61;20366;-68
2022/11/01 02:33:15;0.00;0.00;0.62;0.00;0.00;0.62;6.40;5.70;;;29.60;29.40;;;;;;2261541;61;20574;-68
2022/11/01 02:36:06;0.00;0.00;0.62;0.00;0.00;0.62;6.37;5.77;;;29.60;29.40;;;;;;2261784;61;20386;-68
2022/11/01 02:38:58;0.00;0.00;0.62;0.00;0.00;0.62;7.43;5.87;;;29.60;29.40;;;;;;2261130;61;20393;-68
2022/11/01 02:41:50;0.00;0.00;0.62;0.00;0.00;0.62;6.63;6.03;;;29.60;29.40;;;;;;2261531;61;20393;-68
2022/11/01 02:44:41;0.00;0.00;0.62;0.00;0.00;0.62;6.00;5.50;;;29.50;29.30;;;;;;2260773;61;20362;-68
2022/11/01 02:47:29;0.00;0.00;0.62;0.00;0.00;0.62;6.80;6.20;;;29.50;29.30;;;;;;2261775;61;20362;-68
2022/11/01 02:50:15;0.00;0.00;0.62;0.00;0.00;0.62;6.40;5.73;;;29.50;29.30;;;;;;2261391;61;20474;-68
2022/11/01 02:53:00;0.00;0.00;0.62;0.00;0.00;0.62;6.83;6.23;;;29.40;29.20;;;;;;2260845;61;20436;-68
2022/11/01 02:55:45;0.00;0.00;0.62;0.00;0.00;0.62;8.07;6.27;;;29.50;29.30;;;;;;2261426;61;20598;-68
2022/11/01 02:58:30;0.00;0.00;0.62;0.00;0.00;0.62;6.37;5.50;;;29.40;29.20;;;;;;2261647;61;20635;-68
2022/11/01 03:01:26;0.00;0.00;0.62;0.00;0.00;0.62;6.50;5.90;;;29.40;29.30;;;;;;2261453;61;20378;-68
2022/11/01 03:04:11;0.00;0.00;0.62;0.00;0.00;0.62;7.63;6.80;;;29.40;29.30;;;;;;2261157;61;20412;-67
2022/11/01 03:07:00;0.00;0.00;0.62;0.00;0.00;0.62;7.13;6.40;;;29.40;29.20;;;;;;2260785;61;20350;-68
2022/11/01 03:09:45;0.00;0.00;0.62;0.00;0.00;0.62;7.50;6.80;;;29.40;29.30;;;;;;2261780;61;20366;-69
2022/11/01 03:12:36;0.00;0.00;0.62;0.00;0.00;0.62;7.20;6.50;;;29.30;29.20;;;;;;2261695;61;20361;-68
2022/11/01 03:15:27;0.00;0.00;0.62;0.00;0.00;0.62;8.80;6.57;;;29.30;29.20;;;;;;2260588;61;20437;-67
2022/11/01 03:18:21;0.00;0.00;0.62;0.00;0.00;0.62;6.83;6.20;;;29.30;29.20;;;;;;2261623;61;20390;-68
2022/11/01 03:21:14;0.00;0.00;0.62;0.00;0.00;0.62;7.23;6.50;;;29.20;29.10;;;;;;2261159;61;20414;-67
2022/11/01 03:24:13;0.00;0.00;0.62;0.00;0.00;0.62;7.20;5.60;;;29.20;29.70;;;;;;2261590;61;20564;-67
2022/11/01 03:27:04;0.00;0.00;0.62;0.00;0.00;0.62;6.23;5.20;;;29.20;29.10;;;;;;2261422;61;20374;-68
2022/11/01 03:29:57;0.00;0.00;0.62;0.00;0.00;0.62;6.73;6.07;;;29.20;29.10;;;;;;2260715;61;20358;-67
2022/11/01 03:32:45;0.00;0.00;0.62;0.00;0.00;0.62;7.47;6.43;;;29.20;29.70;;;;;;2261688;61;20579;-68
2022/11/01 03:35:35;0.00;0.00;0.62;0.00;0.00;0.62;7.10;6.10;;;29.20;29.20;;;;;;2262104;61;20632;-68
2022/11/01 03:38:25;0.00;0.00;0.62;0.00;0.00;0.62;7.00;6.30;;;29.10;29.20;;;;;;2262092;61;20409;-68
2022/11/01 03:41:15;0.00;0.00;0.62;0.00;0.00;0.62;6.20;5.60;;;29.10;29.20;;;;;;2262173;61;20380;-68
2022/11/01 03:44:00;0.00;0.00;0.62;0.00;0.00;0.62;6.60;6.00;;;29.10;29.20;;;;;;2261330;61;20354;-68
2022/11/01 03:46:46;0.00;0.00;0.62;0.00;0.00;0.62;9.03;6.80;;;29.10;29.20;;;;;;2262297;61;20475;-68
2022/11/01 03:49:30;0.00;0.00;0.62;0.00;0.00;0.62;7.13;6.00;;;29.10;29.20;;;;;;2262302;61;20726;-68
2022/11/01 03:52:15;0.00;0.00;0.62;0.00;0.00;0.62;7.03;6.33;;;29.00;29.20;;;;;;2261055;61;20450;-68
2022/11/01 03:55:16;0.00;0.00;0.62;0.00;0.00;0.62;7.47;6.67;;;29.00;29.20;;;;;;2261726;61;20596;-68
2022/11/01 03:58:03;0.00;0.00;0.62;0.00;0.00;0.62;7.20;6.30;;;29.00;29.20;;;;;;2261744;61;20385;-68
2022/11/01 04:00:48;0.00;0.00;0.62;0.00;0.00;0.62;6.80;5.90;;;29.00;29.20;;;;;;2262370;61;20362;-68
2022/11/01 04:03:32;0.00;0.00;0.62;0.00;0.00;0.62;7.10;6.40;;;29.00;29.20;;;;;;2261736;61;20365;-68
2022/11/01 04:06:17;0.00;0.00;0.62;0.00;0.00;0.62;7.33;5.67;;;28.90;29.20;;;;;;2261394;61;20454;-68
2022/11/01 04:09:02;0.00;0.00;0.62;0.00;0.00;0.62;6.40;5.80;;;28.90;29.20;;;;;;2262182;61;20349;-68
2022/11/01 04:11:47;0.00;0.00;0.62;0.00;0.00;0.62;7.00;6.30;;;28.90;29.20;;;;;;2261795;61;20357;-68
2022/11/01 04:20:40;0.00;0.00;0.62;0.00;0.00;0.62;6.93;6.23;;;28.80;29.10;;;;;;2261431;61;20368;-68
2022/11/01 04:23:25;0.00;0.00;0.62;0.00;0.00;0.62;6.90;6.17;;;28.80;29.10;;;;;;2262074;61;20404;-68
2022/11/01 04:26:12;0.00;0.00;0.62;0.00;0.00;0.62;6.83;5.90;;;28.80;29.20;;;;;;2261764;61;20413;-68
2022/11/01 04:28:57;0.00;0.00;0.62;0.00;0.00;0.62;6.80;5.83;;;28.80;29.20;;;;;;2261425;61;20358;-68
2022/11/01 04:31:43;0.00;0.00;0.62;0.00;0.00;0.62;6.27;5.67;;;28.70;29.20;;;;;;2261915;61;20365;-68
2022/11/01 04:34:43;0.00;0.00;0.62;0.00;0.00;0.62;6.53;5.73;;;28.70;29.20;;;;;;2261971;61;20374;-68
2022/11/01 04:37:28;0.00;0.00;0.62;0.00;0.00;0.62;7.10;6.37;;;28.70;29.20;;;;;;2261869;61;20417;-68
2022/11/01 04:40:14;0.00;0.00;0.62;0.00;0.00;0.62;7.83;6.27;;;28.70;29.20;;;;;;2261821;61;20397;-68
2022/11/01 04:42:59;0.00;0.00;0.62;0.00;0.00;0.62;8.27;6.60;;;28.60;29.10;;;;;;2261336;61;20686;-68
2022/11/01 04:45:43;0.00;0.00;0.62;0.00;0.00;0.62;9.50;6.93;;;28.60;29.20;;;;;;2262038;61;20457;-68
2022/11/01 04:48:29;0.00;0.00;0.62;0.00;0.00;0.62;7.57;6.93;;;28.60;29.70;;;;;;2262052;61;20618;-68
2022/11/01 04:51:14;0.00;0.00;0.62;0.00;0.00;0.62;5.73;5.27;;;28.60;29.20;;;;;;2261181;61;20806;-68
2022/11/01 04:53:59;0.00;0.00;0.62;0.00;0.00;0.62;7.40;6.20;;;28.60;29.20;;;;;;2261781;61;20561;-68
2022/11/01 04:56:44;0.00;0.00;0.62;0.00;0.00;0.62;7.70;6.90;;;28.50;29.20;;;;;;2262213;61;20382;-67
2022/11/01 04:59:28;0.00;0.00;0.62;0.00;0.00;0.62;11.77;6.00;;;28.50;29.20;;;;;;2261333;61;20801;-68
2022/11/01 05:02:13;0.00;0.00;0.62;0.00;0.00;0.62;7.03;6.10;;;28.50;29.30;;;;;;2261733;61;20432;-68
2022/11/01 05:04:59;0.00;0.00;0.62;0.00;0.00;0.62;7.73;5.37;;;28.50;29.30;;;;;;2260987;61;20413;-68
2022/11/01 05:07:43;0.00;0.00;0.62;0.00;0.00;0.62;8.50;6.20;;;28.50;29.80;;;;;;2261976;61;20374;-67
2022/11/01 05:10:28;0.00;0.00;0.62;0.00;0.00;0.62;9.70;6.10;;;28.40;29.20;;;;;;2261433;61;20361;-68
2022/11/01 05:13:13;0.00;0.00;0.62;0.00;0.00;0.62;7.80;6.27;;;28.40;29.20;;;;;;2260727;61;20401;-68
2022/11/01 05:16:00;0.00;0.00;0.62;0.00;0.00;0.62;8.17;5.43;;;28.40;29.30;;;;;;2261595;61;20447;-67
2022/11/01 05:18:45;0.00;0.00;0.62;0.00;0.00;0.62;6.90;6.20;;;28.30;29.30;;;;;;2261664;61;20429;-68
2022/11/01 05:21:32;0.00;0.00;0.62;0.00;0.00;0.62;6.50;5.50;;;28.30;29.40;;;;;;2261325;61;20759;-68
2022/11/01 05:24:17;0.00;0.00;0.62;0.00;0.00;0.62;7.80;6.60;;;28.30;29.40;;;;;;2261638;61;20362;-68
2022/11/01 05:27:02;0.00;0.00;0.62;0.00;0.00;0.62;7.23;5.70;;;28.30;29.40;;;;;;2261217;61;20370;-68
2022/11/01 05:29:47;0.00;0.00;0.62;0.00;0.00;0.62;8.03;6.83;;;28.30;29.50;;;;;;2262099;61;20726;-67
2022/11/01 05:32:34;0.00;0.00;0.62;0.00;0.00;0.62;6.40;5.50;;;28.30;29.40;;;;;;2261805;61;20362;-69
2022/11/01 05:35:18;0.00;0.00;0.62;0.00;0.00;0.62;6.73;5.37;;;28.20;29.40;;;;;;2260982;61;20604;-66
2022/11/01 05:38:05;0.00;0.00;0.62;0.00;0.00;0.62;6.70;5.93;;;28.20;30.00;;;;;;2261627;61;20401;-67
2022/11/01 05:40:50;0.00;0.00;0.62;0.00;0.00;0.62;7.63;6.33;;;28.20;29.40;;;;;;2262051;61;20643;-66
2022/11/01 05:43:34;0.00;0.00;0.62;0.00;0.00;0.62;8.67;5.53;;;28.20;29.40;;;;;;2261062;61;20396;-66
2022/11/01 05:46:19;0.00;0.00;0.62;0.00;0.00;0.62;6.00;5.33;;;28.10;29.40;;;;;;2261583;61;20386;-67
2022/11/01 05:49:04;0.00;0.00;0.62;0.00;0.00;0.62;6.67;5.90;;;28.10;29.40;;;;;;2261490;61;20438;-66
2022/11/01 05:51:48;0.00;0.00;0.62;0.00;0.00;0.62;6.57;5.40;;;28.10;29.40;;;;;;2261961;61;20354;-66
2022/11/01 05:54:34;0.00;0.00;0.62;0.00;0.00;0.62;6.57;5.20;;;28.10;30.00;;;;;;2261461;61;20362;-66
2022/11/01 05:57:19;0.00;0.00;0.62;0.00;0.00;0.62;5.77;5.17;;;28.10;29.40;;;;;;2260928;61;20400;-67
2022/11/01 06:00:06;0.00;0.00;0.62;0.00;0.00;0.62;8.00;5.30;;;28.10;29.50;;;;;;2261675;61;20432;-66
2022/11/01 06:02:58;0.00;0.00;0.62;0.00;0.00;0.62;6.00;5.47;;;28.10;29.50;;;;;;2261832;61;20357;-67
2022/11/01 06:05:43;0.00;0.00;0.62;0.00;0.00;0.62;5.10;4.60;;;28.10;29.50;;;;;;2261098;61;20382;-66
2022/11/01 06:08:29;0.00;0.00;0.62;0.00;0.00;0.62;5.57;4.57;;;28.10;29.50;;;;;;2261589;61;20362;-66
2022/11/01 06:11:15;0.00;0.00;0.62;0.00;0.00;0.62;6.40;5.70;;;28.00;29.50;;;;;;2261406;61;20702;-66
2022/11/01 06:13:59;0.00;0.00;0.62;0.00;0.00;0.62;6.23;4.90;;;28.00;29.50;;;;;;2261769;61;20358;-66
2022/11/01 06:16:44;0.00;0.00;0.62;0.00;0.00;0.62;7.67;5.37;;;28.00;29.40;;;;;;2261457;61;20377;-66
2022/11/01 06:19:28;0.00;0.00;0.62;0.00;0.00;0.62;6.27;5.00;;;28.00;29.50;;;;;;2261051;61;20390;-66
2022/11/01 06:22:13;0.00;0.00;0.62;0.00;0.00;0.62;7.03;5.97;;;28.00;29.50;;;;;;2261694;61;20366;-66
2022/11/01 06:24:58;0.00;0.00;0.62;0.00;0.00;0.62;6.20;5.20;;;28.00;29.40;;;;;;2261760;61;20381;-67
2022/11/01 06:27:44;0.00;0.00;0.62;0.00;0.00;0.62;7.17;5.10;;;27.90;29.30;;;;;;2261011;61;20477;-66
2022/11/01 06:30:28;0.00;0.00;0.62;0.00;0.00;0.62;6.00;4.77;;;27.90;29.30;;;;;;2261533;61;20361;-66
2022/11/01 06:33:13;0.00;0.00;0.62;0.00;0.00;0.62;4.60;4.20;;;27.80;29.20;;;;;;2261577;61;20381;-66
2022/11/01 06:35:57;0.00;0.00;0.62;0.00;0.00;0.62;8.23;4.27;;;27.80;29.30;;;;;;2261503;61;20386;-66
2022/11/01 06:38:42;0.00;0.00;0.62;0.00;0.00;0.62;6.30;4.43;;;27.80;29.40;;;;;;2261478;61;20420;-66
2022/11/01 06:41:27;0.00;0.00;0.62;0.00;0.00;0.62;5.57;4.97;;;27.70;29.30;;;;;;2260828;61;20361;-66
2022/11/01 06:44:13;0.00;0.00;0.62;0.00;0.00;0.62;6.57;3.67;;;27.70;29.40;;;;;;2261530;61;20489;-66
2022/11/01 06:46:58;0.00;0.00;0.62;0.00;0.00;0.62;5.37;4.10;;;27.70;29.40;;;;;;2261791;61;20366;-66
2022/11/01 06:49:42;0.00;0.00;0.62;0.00;0.00;0.62;6.23;4.30;;;27.70;29.40;;;;;;2260960;61;20382;-66
2022/11/01 06:52:27;0.00;0.00;0.62;0.00;0.00;0.62;6.40;4.20;;;27.70;29.50;;;;;;2261358;61;20465;-66
2022/11/01 06:55:12;0.00;0.00;0.62;0.00;0.00;0.62;5.23;3.67;;;27.70;29.50;;;;;;2261523;61;20589;-66
2022/11/01 06:57:58;0.00;0.00;0.62;0.00;0.00;0.62;5.00;3.90;;;27.70;29.50;;;;;;2261441;61;20366;-66
2022/11/01 07:00:44;0.00;0.00;0.62;0.00;0.00;0.62;4.97;3.60;;;27.70;29.60;;;;;;2261445;61;20365;-66
2022/11/01 07:03:29;0.00;0.00;0.62;0.00;0.00;0.62;4.20;3.43;;;27.70;29.60;;;;;;2260795;61;20377;-66
2022/11/01 07:06:14;0.00;0.00;0.62;0.00;0.00;0.62;6.00;3.90;;;27.70;29.60;;;;;;2261600;61;20497;-68
2022/11/01 07:09:00;0.00;0.00;0.62;0.00;0.00;0.62;3.87;3.33;;;27.70;29.60;;;;;;2261506;61;20405;-66
2022/11/01 07:11:44;0.00;0.00;0.62;0.00;0.00;0.62;5.60;3.97;;;27.70;29.70;;;;;;2260909;61;20405;-67
2022/11/01 07:14:29;0.00;0.00;0.62;0.00;0.00;0.62;4.60;3.63;;;27.70;29.60;;;;;;2261145;61;20394;-67
2022/11/01 07:17:15;0.00;0.00;0.62;0.00;0.00;0.62;5.33;4.67;;;27.70;29.70;;;;;;2261712;61;20365;-66
2022/11/01 07:20:00;0.00;0.00;0.62;0.00;0.00;0.62;5.10;3.83;;;27.70;29.60;;;;;;2261035;61;20389;-66
2022/11/01 07:22:45;0.00;0.00;0.62;0.00;0.00;0.62;4.73;3.97;;;27.70;29.70;;;;;;2261374;61;20400;-66
2022/11/01 07:25:31;0.00;0.00;0.62;0.00;0.00;0.62;6.43;4.47;;;27.70;29.70;;;;;;2260680;61;20409;-67
2022/11/01 07:28:16;0.00;0.00;0.62;0.00;0.00;0.62;4.60;4.13;;;27.70;29.70;;;;;;2261597;61;20823;-65
2022/11/01 07:31:00;0.00;0.00;0.62;0.00;0.00;0.62;5.70;4.27;;;27.70;29.70;;;;;;2261563;61;20726;-65
2022/11/01 07:33:46;0.00;0.00;0.62;0.00;0.00;0.62;8.60;4.30;;;27.70;29.70;;;;;;2260658;61;20551;-65
2022/11/01 07:36:31;0.00;0.00;0.62;0.00;0.00;0.62;4.80;3.83;;;27.70;29.70;;;;;;2260745;61;20832;-63
2022/11/01 07:39:16;0.00;0.00;0.62;0.00;0.00;0.62;5.47;3.70;;;27.60;29.70;;;;;;2261643;61;20412;-65
2022/11/01 07:42:00;0.00;0.00;0.62;0.00;0.00;0.62;4.67;3.87;;;27.60;29.70;;;;;;2260391;61;20432;-62
2022/11/01 07:44:45;0.00;0.00;0.62;0.00;0.00;0.62;5.37;3.90;;;27.60;29.70;;;;;;2261083;61;20420;-65
2022/11/01 07:47:30;0.00;0.00;0.62;0.00;0.00;0.62;4.70;3.90;;;27.60;29.70;;;;;;2261238;61;20362;-63
2022/11/01 07:50:16;0.00;0.00;0.62;0.00;0.00;0.62;4.50;4.07;;;27.60;29.80;;;;;;2261590;61;20682;-63
2022/11/01 07:53:02;0.00;0.00;0.62;0.00;0.00;0.62;6.77;4.43;;;27.60;29.80;;;;;;2263261;61;20372;-65
2022/11/01 07:55:47;0.00;0.00;0.62;0.00;0.00;0.62;5.40;3.77;;;27.60;29.80;;;;;;2265008;61;20422;-62
2022/11/01 07:58:33;0.00;0.00;0.62;0.00;0.00;0.62;6.30;4.30;;;27.60;29.80;;;;;;2265343;61;20416;-62
2022/11/01 08:01:17;0.00;0.00;0.62;0.00;0.00;0.62;5.23;4.10;;;27.60;29.80;;;;;;2265668;61;20360;-64
2022/11/01 08:04:02;0.00;0.00;0.62;0.00;0.00;0.62;5.37;4.33;;;27.60;29.90;;;;;;2264614;61;20376;-64
2022/11/01 08:06:48;0.00;0.00;0.62;0.00;0.00;0.62;4.70;4.00;;;27.60;29.90;;;;;;2265388;61;20372;-63
2022/11/01 08:09:33;0.00;0.00;0.62;0.00;0.00;0.62;4.30;3.90;;;27.60;29.90;;;;;;2265377;61;20729;-63
2022/11/01 08:12:17;0.00;0.00;0.62;0.00;0.00;0.62;3.80;3.40;;;27.60;29.90;;;;;;2265843;61;20361;-63
2022/11/01 08:15:03;0.00;0.00;0.62;0.00;0.00;0.62;4.53;3.80;;;27.60;29.90;;;;;;2265235;61;20396;-63
2022/11/01 08:17:48;0.00;0.00;0.62;0.00;0.00;0.62;4.27;3.70;;;27.60;29.90;;;;;;2264922;61;20369;-61
2022/11/01 08:20:32;0.00;0.00;0.62;0.00;0.00;0.62;6.10;4.90;;;27.70;30.00;;;;;;2266248;61;20357;-65
2022/11/01 08:23:19;0.00;0.00;0.62;0.00;0.00;0.62;4.13;3.43;;;27.70;30.00;;;;;;2266220;61;20357;-62
2022/11/01 08:26:05;0.00;0.00;0.62;0.00;0.00;0.62;4.10;3.50;;;27.70;30.60;;;;;;2265445;61;20388;-63
2022/11/01 08:28:49;0.00;0.00;0.62;0.00;0.00;0.62;5.63;4.60;;;27.70;29.90;;;;;;2266149;61;20426;-63
2022/11/01 08:31:38;0.00;0.00;0.62;0.00;0.00;0.62;4.57;4.17;;;27.70;29.90;;;;;;2266354;61;20448;-63
2022/11/01 08:34:23;0.00;0.00;0.62;0.00;0.00;0.62;4.93;4.00;;;27.70;29.90;;;;;;2266145;61;20365;-63
2022/11/01 08:37:07;0.00;0.00;0.62;0.00;0.00;0.62;3.97;3.57;;;27.70;29.90;;;;;;2265422;61;20688;-63
2022/11/01 08:39:53;0.00;0.00;0.62;0.00;0.00;0.62;4.87;3.60;;;27.80;30.50;;;;;;2265404;61;20388;-65
2022/11/01 08:42:38;0.00;0.00;0.62;0.00;0.00;0.62;4.67;4.07;;;27.80;29.90;;;;;;2266218;61;20436;-62
2022/11/01 08:45:23;0.00;0.00;0.62;0.00;0.00;0.62;5.17;4.53;;;27.80;29.90;;;;;;2265842;61;20431;-62
2022/11/01 08:48:08;0.00;0.00;0.62;0.00;0.00;0.62;5.20;3.20;;;27.80;29.90;;;;;;2265150;61;20424;-66
2022/11/01 08:50:53;0.00;0.00;0.62;0.00;0.00;0.62;5.50;3.80;;;27.80;29.90;;;;;;2265755;61;20392;-65
2022/11/01 08:53:38;0.00;0.00;0.62;0.00;0.00;0.62;4.33;3.10;;;27.80;29.90;;;;;;2266170;61;20357;-63
2022/11/01 08:56:26;0.00;0.00;0.62;0.00;0.00;0.62;4.67;3.57;;;27.80;29.90;;;;;;2265701;61;20605;-62
2022/11/01 08:59:11;0.00;0.00;0.62;0.00;0.00;0.62;6.33;4.40;;;27.80;29.90;;;;;;2265857;61;20381;-61
2022/11/01 09:01:56;0.00;0.00;0.62;0.00;0.00;0.62;6.17;3.73;;;27.80;29.90;;;;;;2265374;61;20813;-66
2022/11/01 09:04:41;0.00;0.00;0.62;0.00;0.00;0.62;4.67;3.40;;;27.80;29.90;;;;;;2265949;61;20372;-64
2022/11/01 09:07:25;0.00;0.00;0.62;0.00;0.00;0.62;9.20;4.90;;;27.80;29.90;;;;;;2265866;61;20430;-61
2022/11/01 09:10:11;0.00;0.00;0.62;0.00;0.00;0.62;4.90;3.90;;;27.80;29.80;;;;;;2265213;61;20709;-65
2022/11/01 09:12:58;0.00;0.00;0.62;0.00;0.00;0.62;6.40;4.07;;;27.80;29.80;;;;;;2265773;61;20419;-63
2022/11/01 09:15:43;0.00;0.00;0.62;0.00;0.00;0.62;4.83;4.03;;;27.80;29.90;;;;;;2265934;61;20901;-64
2022/11/01 09:18:28;0.00;0.00;0.62;0.00;0.00;0.62;7.23;5.30;;;27.80;29.90;;;;;;2265456;61;20484;-63
2022/11/01 09:21:13;0.00;0.00;0.62;0.00;0.00;0.62;7.13;4.00;;;27.80;29.90;;;;;;2265769;61;20373;-63
2022/11/01 09:23:58;0.00;0.00;0.62;0.00;0.00;0.62;6.87;5.17;;;27.80;29.90;;;;;;2264980;61;20357;-61
2022/11/01 09:26:43;0.00;0.00;0.62;0.00;0.00;0.62;5.30;4.80;;;27.80;29.90;;;;;;2266072;61;20455;-62
2022/11/01 09:29:29;0.00;0.00;0.62;0.00;0.00;0.62;6.17;4.37;;;27.80;29.90;;;;;;2265534;61;20349;-63
2022/11/01 09:32:14;0.00;0.00;0.62;0.00;0.00;0.62;4.87;4.13;;;27.90;30.00;;;;;;2265213;61;20714;-64
2022/11/01 09:34:59;0.00;0.00;0.62;0.00;0.00;0.62;4.60;4.17;;;27.90;30.00;;;;;;2265474;61;20757;-62
2022/11/01 09:37:44;0.00;0.00;0.62;0.00;0.00;0.62;5.03;4.60;;;27.90;30.00;;;;;;2266158;61;20437;-66
2022/11/01 09:40:36;0.00;0.00;0.62;0.00;0.00;0.62;5.37;4.60;;;27.90;30.00;;;;;;2265224;61;20404;-60
2022/11/01 09:43:23;0.00;0.00;0.62;0.00;0.00;0.62;5.50;3.70;;;27.90;30.00;;;;;;2265216;61;20581;-63
2022/11/01 09:46:14;0.00;0.00;0.62;0.00;0.00;0.62;4.57;3.57;;;27.90;30.00;;;;;;2264997;61;20720;-62
2022/11/01 09:49:02;0.00;0.00;0.62;0.00;0.00;0.62;9.40;4.63;;;27.90;30.00;;;;;;2265873;61;20424;-61
2022/11/01 09:51:47;0.00;0.00;0.62;0.00;0.00;0.62;6.07;4.13;;;28.00;30.00;;;;;;2265571;61;20400;-62
2022/11/01 09:54:32;0.00;0.00;0.62;0.00;0.00;0.62;4.50;3.47;;;28.00;30.00;;;;;;2264989;61;20365;-61
2022/11/01 09:57:21;0.00;0.00;0.62;0.00;0.00;0.62;5.13;3.57;;;28.00;30.00;;;;;;2262435;61;20396;-61
2022/11/01 10:00:12;0.00;0.00;0.62;0.00;0.00;0.62;3.50;3.20;;;28.10;30.00;;;;;;2265940;61;20595;-62
2022/11/01 10:03:19;0.00;0.00;0.62;0.00;0.00;0.62;5.07;3.20;;;28.00;30.00;;;;;;2265412;61;20361;-63
2022/11/01 10:06:14;0.00;0.00;0.62;0.00;0.00;0.62;3.90;3.50;;;28.00;29.90;;;;;;2265591;61;20853;-62
2022/11/01 10:09:10;0.00;0.00;0.62;0.00;0.00;0.62;5.17;3.30;;;28.10;30.00;;;;;;2265101;61;20358;-63
2022/11/01 10:12:13;0.00;0.00;0.62;0.00;0.00;0.62;3.90;3.00;;;28.10;30.00;;;;;;2265609;61;20757;-61
2022/11/01 10:15:27;0.00;0.00;0.62;0.00;0.00;0.62;4.00;3.10;;;28.10;30.00;;;;;;2265747;61;20709;-61
2022/11/01 10:18:26;0.00;0.00;0.62;0.00;0.00;0.62;3.63;2.93;;;28.10;30.00;;;;;;2265719;61;20434;-61
2022/11/01 10:21:14;0.00;0.00;0.62;0.00;0.00;0.62;4.80;3.37;;;28.10;29.90;;;;;;2265664;61;20365;-62
2022/11/01 10:24:04;0.00;0.00;0.62;0.00;0.00;0.62;3.30;2.70;;;28.10;29.90;;;;;;2265024;61;20361;-62
2022/11/01 10:26:56;0.00;0.00;0.62;0.00;0.00;0.62;3.70;3.30;;;28.20;30.00;;;;;;2265656;61;20393;-62
2022/11/01 10:29:48;0.00;0.00;0.62;0.00;0.00;0.62;4.87;3.80;;;28.10;30.00;;;;;;2265850;61;20400;-62
2022/11/01 10:32:42;0.00;0.00;0.62;0.00;0.00;0.62;4.27;2.93;;;28.20;30.00;;;;;;2265668;61;20372;-63
2022/11/01 10:35:31;0.00;0.00;0.62;0.00;0.00;0.62;3.47;3.17;;;28.20;30.00;;;;;;2265317;61;20458;-62
2022/11/01 10:38:23;0.00;0.00;0.62;0.00;0.00;0.62;3.60;2.83;;;28.20;30.00;;;;;;2264884;61;20688;-61
2022/11/01 10:41:21;0.00;0.00;0.62;0.00;0.00;0.62;3.60;2.80;;;28.20;30.10;;;;;;2265776;61;20377;-61
2022/11/01 10:44:14;0.00;0.00;0.62;0.00;0.00;0.62;3.67;2.73;;;28.30;30.10;;;;;;2265531;61;20464;-61
2022/11/01 10:47:07;0.00;0.00;0.62;0.00;0.00;0.62;4.10;3.10;;;28.30;30.10;;;;;;2265155;61;20353;-62
2022/11/01 10:49:56;0.00;0.00;0.62;0.00;0.00;0.62;4.30;3.10;;;28.30;30.10;;;;;;2265488;61;20377;-62
2022/11/01 10:52:49;0.00;0.00;0.62;0.00;0.00;0.62;3.30;2.87;;;28.40;30.20;;;;;;2264942;61;20691;-62
2022/11/01 10:55:40;0.00;0.00;0.62;0.00;0.00;0.62;4.03;2.80;;;28.40;30.20;;;;;;2265650;61;20385;-62
2022/11/01 10:58:36;0.00;0.00;0.62;0.00;0.00;0.62;3.07;2.40;;;28.40;30.20;;;;;;2265418;61;20764;-62
2022/11/01 11:01:25;0.00;0.00;0.62;0.00;0.00;0.62;3.30;2.57;;;28.50;30.20;;;;;;2264562;61;20392;-62
2022/11/01 11:04:14;0.00;0.00;0.62;0.00;0.00;0.62;2.90;2.60;;;28.50;30.20;;;;;;2265076;61;20500;-62
2022/11/01 11:06:59;0.00;0.00;0.62;0.00;0.00;0.62;3.37;2.57;;;28.60;30.20;;;;;;2265788;61;20803;-62